sensor_id;sensor_type;location;lat;lon;timestamp;temperature;humidity
30097;DHT22;16915;51.466;3.610;2023-11-19T00:00:21;13.00;99.90
30097;DHT22;16915;51.466;3.610;2023-11-19T00:02:47;13.00;99.90
30097;DHT22;16915;51.466;3.610;2023-11-19T00:05:13;13.00;99.90
30097;DHT22;16915;51.466;3.610;2023-11-19T00:07:40;12.90;99.90
30097;DHT22;16915;51.466;3.610;2023-11-19T00:10:12;12.90;99.90
30097;DHT22;16915;51.466;3.610;2023-11-19T00:12:43;12.90;99.90
30097;DHT22;16915;51.466;3.610;2023-11-19T00:15:10;12.90;99.90
30097;DHT22;16915;51.466;3.610;2023-11-19T00:17:37;12.90;99.90
30097;DHT22;16915;51.466;3.610;2023-11-19T00:20:04;12.90;99.90
30097;DHT22;16915;51.466;3.610;2023-11-19T00:22:31;12.90;99.90
30097;DHT22;16915;51.466;3.610;2023-11-19T00:24:57;12.80;99.90
30097;DHT22;16915;51.466;3.610;2023-11-19T00:27:22;12.80;99.90
30097;DHT22;16915;51.466;3.610;2023-11-19T00:29:48;12.80;99.90
30097;DHT22;16915;51.466;3.610;2023-11-19T00:32:14;12.80;99.90
30097;DHT22;16915;51.466;3.610;2023-11-19T00:34:40;12.80;99.90
30097;DHT22;16915;51.466;3.610;2023-11-19T00:37:06;12.80;99.90
30097;DHT22;16915;51.466;3.610;2023-11-19T00:39:32;12.80;99.90
30097;DHT22;16915;51.466;3.610;2023-11-19T00:41:58;12.80;99.90
30097;DHT22;16915;51.466;3.610;2023-11-19T00:44:23;12.80;99.90
30097;DHT22;16915;51.466;3.610;2023-11-19T00:46:49;12.70;99.90
30097;DHT22;16915;51.466;3.610;2023-11-19T00:49:14;12.70;99.90
30097;DHT22;16915;51.466;3.610;2023-11-19T00:51:40;12.60;99.90
30097;DHT22;16915;51.466;3.610;2023-11-19T00:54:06;12.60;99.90
30097;DHT22;16915;51.466;3.610;2023-11-19T00:56:31;12.50;99.90
30097;DHT22;16915;51.466;3.610;2023-11-19T00:58:57;12.50;99.90
30097;DHT22;16915;51.466;3.610;2023-11-19T01:01:22;12.50;99.90
30097;DHT22;16915;51.466;3.610;2023-11-19T01:03:48;12.40;99.90
30097;DHT22;16915;51.466;3.610;2023-11-19T01:06:14;12.50;99.90
30097;DHT22;16915;51.466;3.610;2023-11-19T01:08:42;12.50;99.90
30097;DHT22;16915;51.466;3.610;2023-11-19T01:11:08;12.40;99.90
30097;DHT22;16915;51.466;3.610;2023-11-19T01:13:34;12.40;99.90
30097;DHT22;16915;51.466;3.610;2023-11-19T01:15:59;12.40;99.90
30097;DHT22;16915;51.466;3.610;2023-11-19T01:18:27;12.30;99.90
30097;DHT22;16915;51.466;3.610;2023-11-19T01:20:53;12.30;99.90
30097;DHT22;16915;51.466;3.610;2023-11-19T01:23:18;12.30;99.90
30097;DHT22;16915;51.466;3.610;2023-11-19T01:25:44;12.30;99.90
30097;DHT22;16915;51.466;3.610;2023-11-19T01:28:09;12.30;99.90
30097;DHT22;16915;51.466;3.610;2023-11-19T01:30:35;12.20;99.90
30097;DHT22;16915;51.466;3.610;2023-11-19T01:33:00;12.20;99.90
30097;DHT22;16915;51.466;3.610;2023-11-19T01:35:26;12.10;99.90
30097;DHT22;16915;51.466;3.610;2023-11-19T01:37:51;12.10;99.90
30097;DHT22;16915;51.466;3.610;2023-11-19T01:40:20;12.10;99.90
30097;DHT22;16915;51.466;3.610;2023-11-19T01:42:46;12.00;99.90
30097;DHT22;16915;51.466;3.610;2023-11-19T01:45:29;12.00;99.90
30097;DHT22;16915;51.466;3.610;2023-11-19T01:48:00;12.00;99.90
30097;DHT22;16915;51.466;3.610;2023-11-19T01:50:28;12.10;99.90
30097;DHT22;16915;51.466;3.610;2023-11-19T01:52:54;12.00;99.90
30097;DHT22;16915;51.466;3.610;2023-11-19T01:55:21;12.00;99.90
30097;DHT22;16915;51.466;3.610;2023-11-19T01:57:48;12.00;99.90
30097;DHT22;16915;51.466;3.610;2023-11-19T02:00:15;11.90;99.90
30097;DHT22;16915;51.466;3.610;2023-11-19T02:02:42;11.90;99.90
30097;DHT22;16915;51.466;3.610;2023-11-19T02:05:09;12.00;99.90
30097;DHT22;16915;51.466;3.610;2023-11-19T02:07:35;11.90;99.90
30097;DHT22;16915;51.466;3.610;2023-11-19T02:10:01;11.90;99.90
30097;DHT22;16915;51.466;3.610;2023-11-19T02:12:28;11.90;99.90
30097;DHT22;16915;51.466;3.610;2023-11-19T02:14:54;11.90;99.90
30097;DHT22;16915;51.466;3.610;2023-11-19T02:17:30;11.90;99.90
30097;DHT22;16915;51.466;3.610;2023-11-19T02:20:00;11.90;99.90
30097;DHT22;16915;51.466;3.610;2023-11-19T02:22:26;11.90;99.90
30097;DHT22;16915;51.466;3.610;2023-11-19T02:25:00;11.90;99.90
30097;DHT22;16915;51.466;3.610;2023-11-19T02:30:07;11.90;99.90
30097;DHT22;16915;51.466;3.610;2023-11-19T02:32:34;11.90;99.90
30097;DHT22;16915;51.466;3.610;2023-11-19T02:35:01;11.90;99.90
30097;DHT22;16915;51.466;3.610;2023-11-19T02:37:26;11.90;99.90
30097;DHT22;16915;51.466;3.610;2023-11-19T02:39:53;11.80;99.90
30097;DHT22;16915;51.466;3.610;2023-11-19T02:42:19;11.80;99.90
30097;DHT22;16915;51.466;3.610;2023-11-19T02:44:45;11.80;99.90
30097;DHT22;16915;51.466;3.610;2023-11-19T02:47:11;11.80;99.90
30097;DHT22;16915;51.466;3.610;2023-11-19T02:49:37;11.80;99.90
30097;DHT22;16915;51.466;3.610;2023-11-19T02:52:03;11.80;99.90
30097;DHT22;16915;51.466;3.610;2023-11-19T02:54:31;11.80;99.90
30097;DHT22;16915;51.466;3.610;2023-11-19T02:57:00;11.80;99.90
30097;DHT22;16915;51.466;3.610;2023-11-19T02:59:27;11.70;99.90
30097;DHT22;16915;51.466;3.610;2023-11-19T03:01:53;11.70;99.90
30097;DHT22;16915;51.466;3.610;2023-11-19T03:04:19;11.70;99.90
30097;DHT22;16915;51.466;3.610;2023-11-19T03:06:48;11.60;99.90
30097;DHT22;16915;51.466;3.610;2023-11-19T03:09:14;11.60;99.90
30097;DHT22;16915;51.466;3.610;2023-11-19T03:11:40;11.60;99.90
30097;DHT22;16915;51.466;3.610;2023-11-19T03:14:05;11.60;99.90
30097;DHT22;16915;51.466;3.610;2023-11-19T03:16:31;11.60;99.90
30097;DHT22;16915;51.466;3.610;2023-11-19T03:18:57;11.60;99.90
30097;DHT22;16915;51.466;3.610;2023-11-19T03:21:29;11.60;99.90
30097;DHT22;16915;51.466;3.610;2023-11-19T03:23:55;11.60;99.90
30097;DHT22;16915;51.466;3.610;2023-11-19T03:26:21;11.50;99.90
30097;DHT22;16915;51.466;3.610;2023-11-19T03:28:47;11.50;99.90
30097;DHT22;16915;51.466;3.610;2023-11-19T03:31:13;11.50;99.90
30097;DHT22;16915;51.466;3.610;2023-11-19T03:33:39;11.50;99.90
30097;DHT22;16915;51.466;3.610;2023-11-19T03:36:05;11.50;99.90
30097;DHT22;16915;51.466;3.610;2023-11-19T03:38:31;11.50;99.90
30097;DHT22;16915;51.466;3.610;2023-11-19T03:40:56;11.50;99.90
30097;DHT22;16915;51.466;3.610;2023-11-19T03:43:22;11.40;99.90
30097;DHT22;16915;51.466;3.610;2023-11-19T03:45:47;11.50;99.90
30097;DHT22;16915;51.466;3.610;2023-11-19T03:48:13;11.50;99.90
30097;DHT22;16915;51.466;3.610;2023-11-19T03:50:41;11.50;99.90
30097;DHT22;16915;51.466;3.610;2023-11-19T03:53:07;11.50;99.90
30097;DHT22;16915;51.466;3.610;2023-11-19T03:55:33;11.60;99.90
30097;DHT22;16915;51.466;3.610;2023-11-19T03:57:58;11.60;99.90
30097;DHT22;16915;51.466;3.610;2023-11-19T04:00:24;11.50;99.90
30097;DHT22;16915;51.466;3.610;2023-11-19T04:02:49;11.50;99.90
30097;DHT22;16915;51.466;3.610;2023-11-19T04:05:15;11.50;99.90
30097;DHT22;16915;51.466;3.610;2023-11-19T04:07:40;11.60;99.90
30097;DHT22;16915;51.466;3.610;2023-11-19T04:10:06;11.50;99.90
30097;DHT22;16915;51.466;3.610;2023-11-19T04:12:32;11.50;99.90
30097;DHT22;16915;51.466;3.610;2023-11-19T04:14:58;11.60;99.90
30097;DHT22;16915;51.466;3.610;2023-11-19T04:17:23;11.60;99.90
30097;DHT22;16915;51.466;3.610;2023-11-19T04:19:49;11.60;99.90
30097;DHT22;16915;51.466;3.610;2023-11-19T04:22:15;11.60;99.90
30097;DHT22;16915;51.466;3.610;2023-11-19T04:24:40;11.60;99.90
30097;DHT22;16915;51.466;3.610;2023-11-19T04:27:06;11.60;99.90
30097;DHT22;16915;51.466;3.610;2023-11-19T04:29:32;11.60;99.90
30097;DHT22;16915;51.466;3.610;2023-11-19T04:31:58;11.60;99.90
30097;DHT22;16915;51.466;3.610;2023-11-19T04:34:24;11.60;99.90
30097;DHT22;16915;51.466;3.610;2023-11-19T04:36:50;11.60;99.90
30097;DHT22;16915;51.466;3.610;2023-11-19T04:39:15;11.60;99.90
30097;DHT22;16915;51.466;3.610;2023-11-19T04:41:50;11.60;99.90
30097;DHT22;16915;51.466;3.610;2023-11-19T04:44:19;11.60;99.90
30097;DHT22;16915;51.466;3.610;2023-11-19T04:46:45;11.60;99.90
30097;DHT22;16915;51.466;3.610;2023-11-19T04:49:14;11.60;99.90
30097;DHT22;16915;51.466;3.610;2023-11-19T04:51:40;11.50;99.90
30097;DHT22;16915;51.466;3.610;2023-11-19T04:54:07;11.60;99.90
30097;DHT22;16915;51.466;3.610;2023-11-19T04:56:34;11.50;99.90
30097;DHT22;16915;51.466;3.610;2023-11-19T04:59:00;11.50;99.90
30097;DHT22;16915;51.466;3.610;2023-11-19T05:01:26;11.40;99.90
30097;DHT22;16915;51.466;3.610;2023-11-19T05:03:53;11.40;99.90
30097;DHT22;16915;51.466;3.610;2023-11-19T05:06:18;11.40;99.90
30097;DHT22;16915;51.466;3.610;2023-11-19T05:08:44;11.40;99.90
30097;DHT22;16915;51.466;3.610;2023-11-19T05:11:10;11.40;99.90
30097;DHT22;16915;51.466;3.610;2023-11-19T05:13:38;11.40;99.90
30097;DHT22;16915;51.466;3.610;2023-11-19T05:16:03;11.50;99.90
30097;DHT22;16915;51.466;3.610;2023-11-19T05:18:29;11.40;99.90
30097;DHT22;16915;51.466;3.610;2023-11-19T05:20:55;11.40;99.90
30097;DHT22;16915;51.466;3.610;2023-11-19T05:23:20;11.30;99.90
30097;DHT22;16915;51.466;3.610;2023-11-19T05:25:46;11.30;99.90
30097;DHT22;16915;51.466;3.610;2023-11-19T05:28:13;11.30;99.90
30097;DHT22;16915;51.466;3.610;2023-11-19T05:30:39;11.30;99.90
30097;DHT22;16915;51.466;3.610;2023-11-19T05:33:05;11.20;99.90
30097;DHT22;16915;51.466;3.610;2023-11-19T05:35:32;11.20;99.90
30097;DHT22;16915;51.466;3.610;2023-11-19T05:37:57;11.20;99.90
30097;DHT22;16915;51.466;3.610;2023-11-19T05:40:23;11.10;99.90
30097;DHT22;16915;51.466;3.610;2023-11-19T05:42:49;11.10;99.90
30097;DHT22;16915;51.466;3.610;2023-11-19T05:45:14;11.20;99.90
30097;DHT22;16915;51.466;3.610;2023-11-19T05:47:41;11.10;99.90
30097;DHT22;16915;51.466;3.610;2023-11-19T05:50:06;11.10;99.90
30097;DHT22;16915;51.466;3.610;2023-11-19T05:52:32;11.00;99.90
30097;DHT22;16915;51.466;3.610;2023-11-19T05:55:02;10.90;99.90
30097;DHT22;16915;51.466;3.610;2023-11-19T05:57:30;10.90;99.90
30097;DHT22;16915;51.466;3.610;2023-11-19T05:59:55;10.90;99.90
30097;DHT22;16915;51.466;3.610;2023-11-19T06:02:21;11.00;99.90
30097;DHT22;16915;51.466;3.610;2023-11-19T06:04:47;11.00;99.90
30097;DHT22;16915;51.466;3.610;2023-11-19T06:07:13;11.00;99.90
30097;DHT22;16915;51.466;3.610;2023-11-19T06:09:40;11.00;99.90
30097;DHT22;16915;51.466;3.610;2023-11-19T06:12:06;11.10;99.90
30097;DHT22;16915;51.466;3.610;2023-11-19T06:14:33;11.10;99.90
30097;DHT22;16915;51.466;3.610;2023-11-19T06:16:58;11.10;99.90
30097;DHT22;16915;51.466;3.610;2023-11-19T06:19:25;11.10;99.90
30097;DHT22;16915;51.466;3.610;2023-11-19T06:21:50;11.00;99.90
30097;DHT22;16915;51.466;3.610;2023-11-19T06:24:16;11.00;99.90
30097;DHT22;16915;51.466;3.610;2023-11-19T06:26:42;11.00;99.90
30097;DHT22;16915;51.466;3.610;2023-11-19T06:29:08;11.00;99.90
30097;DHT22;16915;51.466;3.610;2023-11-19T06:31:33;11.00;99.90
30097;DHT22;16915;51.466;3.610;2023-11-19T06:33:59;11.00;99.90
30097;DHT22;16915;51.466;3.610;2023-11-19T06:36:24;11.00;99.90
30097;DHT22;16915;51.466;3.610;2023-11-19T06:38:52;10.90;99.90
30097;DHT22;16915;51.466;3.610;2023-11-19T06:41:17;10.80;99.90
30097;DHT22;16915;51.466;3.610;2023-11-19T06:43:43;10.80;99.90
30097;DHT22;16915;51.466;3.610;2023-11-19T06:46:18;10.80;99.90
30097;DHT22;16915;51.466;3.610;2023-11-19T06:48:44;10.80;99.90
30097;DHT22;16915;51.466;3.610;2023-11-19T06:51:11;10.80;99.90
30097;DHT22;16915;51.466;3.610;2023-11-19T06:53:36;10.90;99.90
30097;DHT22;16915;51.466;3.610;2023-11-19T06:56:02;10.90;99.90
30097;DHT22;16915;51.466;3.610;2023-11-19T06:58:35;10.90;99.90
30097;DHT22;16915;51.466;3.610;2023-11-19T07:01:00;10.80;99.90
30097;DHT22;16915;51.466;3.610;2023-11-19T07:03:26;10.80;99.90
30097;DHT22;16915;51.466;3.610;2023-11-19T07:05:52;10.80;99.90
30097;DHT22;16915;51.466;3.610;2023-11-19T07:08:17;10.80;99.90
30097;DHT22;16915;51.466;3.610;2023-11-19T07:10:43;10.70;99.90
30097;DHT22;16915;51.466;3.610;2023-11-19T07:13:08;10.70;99.90
30097;DHT22;16915;51.466;3.610;2023-11-19T07:15:35;10.70;99.90
30097;DHT22;16915;51.466;3.610;2023-11-19T07:18:00;10.70;99.90
30097;DHT22;16915;51.466;3.610;2023-11-19T07:20:26;10.80;99.90
30097;DHT22;16915;51.466;3.610;2023-11-19T07:22:53;10.80;99.90
30097;DHT22;16915;51.466;3.610;2023-11-19T07:25:20;10.80;99.90
30097;DHT22;16915;51.466;3.610;2023-11-19T07:27:45;10.80;99.90
30097;DHT22;16915;51.466;3.610;2023-11-19T07:30:13;10.90;99.90
30097;DHT22;16915;51.466;3.610;2023-11-19T07:32:39;11.00;99.90
30097;DHT22;16915;51.466;3.610;2023-11-19T07:35:05;11.10;99.90
30097;DHT22;16915;51.466;3.610;2023-11-19T07:37:31;11.10;99.90
30097;DHT22;16915;51.466;3.610;2023-11-19T07:39:56;11.10;99.90
30097;DHT22;16915;51.466;3.610;2023-11-19T07:42:22;11.10;99.90
30097;DHT22;16915;51.466;3.610;2023-11-19T07:44:49;11.10;99.90
30097;DHT22;16915;51.466;3.610;2023-11-19T07:47:14;11.10;99.90
30097;DHT22;16915;51.466;3.610;2023-11-19T07:49:40;11.20;99.90
30097;DHT22;16915;51.466;3.610;2023-11-19T07:52:05;11.20;99.90
30097;DHT22;16915;51.466;3.610;2023-11-19T07:54:31;11.20;99.90
30097;DHT22;16915;51.466;3.610;2023-11-19T07:56:56;11.30;99.90
30097;DHT22;16915;51.466;3.610;2023-11-19T07:59:22;11.20;99.90
30097;DHT22;16915;51.466;3.610;2023-11-19T08:01:47;11.20;99.90
30097;DHT22;16915;51.466;3.610;2023-11-19T08:04:13;11.20;99.90
30097;DHT22;16915;51.466;3.610;2023-11-19T08:06:39;11.20;99.90
30097;DHT22;16915;51.466;3.610;2023-11-19T08:09:05;11.30;99.90
30097;DHT22;16915;51.466;3.610;2023-11-19T08:11:32;11.30;99.90
30097;DHT22;16915;51.466;3.610;2023-11-19T08:13:57;11.40;99.90
30097;DHT22;16915;51.466;3.610;2023-11-19T08:16:23;11.40;99.90
30097;DHT22;16915;51.466;3.610;2023-11-19T08:18:48;11.40;99.90
30097;DHT22;16915;51.466;3.610;2023-11-19T08:21:14;11.40;99.90
30097;DHT22;16915;51.466;3.610;2023-11-19T08:23:40;11.40;99.90
30097;DHT22;16915;51.466;3.610;2023-11-19T08:26:06;11.50;99.90
30097;DHT22;16915;51.466;3.610;2023-11-19T08:28:31;11.50;99.90
30097;DHT22;16915;51.466;3.610;2023-11-19T08:30:59;11.50;99.90
30097;DHT22;16915;51.466;3.610;2023-11-19T08:33:26;11.50;99.90
30097;DHT22;16915;51.466;3.610;2023-11-19T08:35:51;11.50;99.90
30097;DHT22;16915;51.466;3.610;2023-11-19T08:38:17;11.60;99.90
30097;DHT22;16915;51.466;3.610;2023-11-19T08:40:42;11.60;99.90
30097;DHT22;16915;51.466;3.610;2023-11-19T08:43:08;11.60;99.90
30097;DHT22;16915;51.466;3.610;2023-11-19T08:45:33;11.60;99.90
30097;DHT22;16915;51.466;3.610;2023-11-19T08:47:59;11.70;99.90
30097;DHT22;16915;51.466;3.610;2023-11-19T08:50:24;11.70;99.90
30097;DHT22;16915;51.466;3.610;2023-11-19T08:52:50;11.80;99.90
30097;DHT22;16915;51.466;3.610;2023-11-19T08:55:16;11.90;99.90
30097;DHT22;16915;51.466;3.610;2023-11-19T08:57:42;11.90;99.90
30097;DHT22;16915;51.466;3.610;2023-11-19T09:00:08;11.90;99.90
30097;DHT22;16915;51.466;3.610;2023-11-19T09:02:36;12.00;99.90
30097;DHT22;16915;51.466;3.610;2023-11-19T09:05:05;12.00;99.90
30097;DHT22;16915;51.466;3.610;2023-11-19T09:07:33;12.10;99.90
30097;DHT22;16915;51.466;3.610;2023-11-19T09:09:58;12.20;99.90
30097;DHT22;16915;51.466;3.610;2023-11-19T09:12:24;12.30;99.90
30097;DHT22;16915;51.466;3.610;2023-11-19T09:14:49;12.30;99.90
30097;DHT22;16915;51.466;3.610;2023-11-19T09:17:15;12.30;99.90
30097;DHT22;16915;51.466;3.610;2023-11-19T09:19:40;12.30;99.90
30097;DHT22;16915;51.466;3.610;2023-11-19T09:22:06;12.30;99.90
30097;DHT22;16915;51.466;3.610;2023-11-19T09:24:32;12.30;99.90
30097;DHT22;16915;51.466;3.610;2023-11-19T09:26:57;12.30;99.90
30097;DHT22;16915;51.466;3.610;2023-11-19T09:29:23;12.40;99.90
30097;DHT22;16915;51.466;3.610;2023-11-19T09:31:49;12.40;99.90
30097;DHT22;16915;51.466;3.610;2023-11-19T09:34:14;12.50;99.90
30097;DHT22;16915;51.466;3.610;2023-11-19T09:36:40;12.40;99.90
30097;DHT22;16915;51.466;3.610;2023-11-19T09:39:10;12.50;99.90
30097;DHT22;16915;51.466;3.610;2023-11-19T09:41:36;12.60;99.90
30097;DHT22;16915;51.466;3.610;2023-11-19T09:44:01;12.70;99.90
30097;DHT22;16915;51.466;3.610;2023-11-19T09:46:29;12.80;99.90
30097;DHT22;16915;51.466;3.610;2023-11-19T09:48:56;12.90;99.90
30097;DHT22;16915;51.466;3.610;2023-11-19T09:51:23;12.80;99.90
30097;DHT22;16915;51.466;3.610;2023-11-19T09:53:49;12.70;99.90
30097;DHT22;16915;51.466;3.610;2023-11-19T09:56:15;12.50;99.90
30097;DHT22;16915;51.466;3.610;2023-11-19T09:58:42;12.30;99.90
30097;DHT22;16915;51.466;3.610;2023-11-19T10:01:08;12.10;99.90
30097;DHT22;16915;51.466;3.610;2023-11-19T10:03:36;12.00;99.90
30097;DHT22;16915;51.466;3.610;2023-11-19T10:06:06;11.90;99.90
30097;DHT22;16915;51.466;3.610;2023-11-19T10:08:32;11.90;99.90
30097;DHT22;16915;51.466;3.610;2023-11-19T10:10:58;12.00;99.90
30097;DHT22;16915;51.466;3.610;2023-11-19T10:13:31;12.10;99.90
30097;DHT22;16915;51.466;3.610;2023-11-19T10:15:56;12.10;99.90
30097;DHT22;16915;51.466;3.610;2023-11-19T10:18:28;12.20;99.90
30097;DHT22;16915;51.466;3.610;2023-11-19T10:20:53;12.10;99.90
30097;DHT22;16915;51.466;3.610;2023-11-19T10:23:20;12.20;99.90
30097;DHT22;16915;51.466;3.610;2023-11-19T10:25:46;12.20;99.90
30097;DHT22;16915;51.466;3.610;2023-11-19T10:28:11;12.20;99.90
30097;DHT22;16915;51.466;3.610;2023-11-19T10:30:41;12.30;99.90
30097;DHT22;16915;51.466;3.610;2023-11-19T10:33:12;12.50;99.90
30097;DHT22;16915;51.466;3.610;2023-11-19T10:36:03;12.70;99.90
30097;DHT22;16915;51.466;3.610;2023-11-19T10:38:28;13.20;99.90
30097;DHT22;16915;51.466;3.610;2023-11-19T10:40:54;13.60;99.90
30097;DHT22;16915;51.466;3.610;2023-11-19T10:43:20;14.10;99.90
30097;DHT22;16915;51.466;3.610;2023-11-19T10:45:49;14.30;99.90
30097;DHT22;16915;51.466;3.610;2023-11-19T10:48:15;14.30;99.90
30097;DHT22;16915;51.466;3.610;2023-11-19T10:50:42;14.40;99.90
30097;DHT22;16915;51.466;3.610;2023-11-19T10:53:10;14.40;99.90
30097;DHT22;16915;51.466;3.610;2023-11-19T10:55:37;14.20;99.90
30097;DHT22;16915;51.466;3.610;2023-11-19T11:00:51;14.00;99.90
30097;DHT22;16915;51.466;3.610;2023-11-19T11:03:18;13.70;99.90
30097;DHT22;16915;51.466;3.610;2023-11-19T11:05:48;13.60;99.90
30097;DHT22;16915;51.466;3.610;2023-11-19T11:08:14;13.70;99.90
30097;DHT22;16915;51.466;3.610;2023-11-19T11:10:43;13.90;99.90
30097;DHT22;16915;51.466;3.610;2023-11-19T11:13:09;14.40;99.90
30097;DHT22;16915;51.466;3.610;2023-11-19T11:15:36;14.50;99.90
30097;DHT22;16915;51.466;3.610;2023-11-19T11:18:02;14.80;99.90
30097;DHT22;16915;51.466;3.610;2023-11-19T11:20:32;15.20;99.90
30097;DHT22;16915;51.466;3.610;2023-11-19T11:29:09;15.30;99.90
30097;DHT22;16915;51.466;3.610;2023-11-19T11:34:58;14.40;99.90
30097;DHT22;16915;51.466;3.610;2023-11-19T11:37:36;14.00;99.90
30097;DHT22;16915;51.466;3.610;2023-11-19T11:40:03;13.50;99.90
30097;DHT22;16915;51.466;3.610;2023-11-19T11:42:36;13.10;99.90
30097;DHT22;16915;51.466;3.610;2023-11-19T11:50:15;13.80;99.90
30097;DHT22;16915;51.466;3.610;2023-11-19T11:55:25;14.60;99.90
30097;DHT22;16915;51.466;3.610;2023-11-19T11:57:51;15.00;99.90
30097;DHT22;16915;51.466;3.610;2023-11-19T12:03:02;15.80;99.90
30097;DHT22;16915;51.466;3.610;2023-11-19T12:05:28;16.20;99.90
30097;DHT22;16915;51.466;3.610;2023-11-19T12:07:55;16.40;99.90
30097;DHT22;16915;51.466;3.610;2023-11-19T12:10:21;16.50;99.90
30097;DHT22;16915;51.466;3.610;2023-11-19T12:12:47;16.80;99.90
30097;DHT22;16915;51.466;3.610;2023-11-19T12:15:13;16.90;99.90
30097;DHT22;16915;51.466;3.610;2023-11-19T12:17:47;17.00;99.90
30097;DHT22;16915;51.466;3.610;2023-11-19T12:20:21;17.30;99.90
30097;DHT22;16915;51.466;3.610;2023-11-19T12:22:47;17.20;99.90
30097;DHT22;16915;51.466;3.610;2023-11-19T12:25:15;17.00;99.90
30097;DHT22;16915;51.466;3.610;2023-11-19T12:27:51;16.40;99.90
30097;DHT22;16915;51.466;3.610;2023-11-19T12:32:48;15.50;99.90
30097;DHT22;16915;51.466;3.610;2023-11-19T12:35:13;15.40;99.90
30097;DHT22;16915;51.466;3.610;2023-11-19T12:40:12;15.60;99.90
30097;DHT22;16915;51.466;3.610;2023-11-19T12:42:38;15.80;99.90
30097;DHT22;16915;51.466;3.610;2023-11-19T12:45:05;15.70;99.90
30097;DHT22;16915;51.466;3.610;2023-11-19T12:47:30;15.70;99.90
30097;DHT22;16915;51.466;3.610;2023-11-19T12:49:57;15.80;99.90
30097;DHT22;16915;51.466;3.610;2023-11-19T12:52:22;16.00;99.90
30097;DHT22;16915;51.466;3.610;2023-11-19T12:54:49;16.30;99.90
30097;DHT22;16915;51.466;3.610;2023-11-19T12:57:15;16.40;99.90
30097;DHT22;16915;51.466;3.610;2023-11-19T12:59:40;16.10;99.90
30097;DHT22;16915;51.466;3.610;2023-11-19T13:02:07;15.80;99.90
30097;DHT22;16915;51.466;3.610;2023-11-19T13:04:33;15.80;99.90
30097;DHT22;16915;51.466;3.610;2023-11-19T13:06:59;15.70;99.90
30097;DHT22;16915;51.466;3.610;2023-11-19T13:09:26;15.60;99.90
30097;DHT22;16915;51.466;3.610;2023-11-19T13:11:53;15.40;99.90
30097;DHT22;16915;51.466;3.610;2023-11-19T13:14:19;15.50;99.90
30097;DHT22;16915;51.466;3.610;2023-11-19T13:16:45;15.80;99.90
30097;DHT22;16915;51.466;3.610;2023-11-19T13:19:14;16.20;99.90
30097;DHT22;16915;51.466;3.610;2023-11-19T13:21:41;16.50;99.90
30097;DHT22;16915;51.466;3.610;2023-11-19T13:24:07;16.60;99.90
30097;DHT22;16915;51.466;3.610;2023-11-19T13:26:33;16.80;99.90
30097;DHT22;16915;51.466;3.610;2023-11-19T13:28:58;16.80;99.90
30097;DHT22;16915;51.466;3.610;2023-11-19T13:31:24;16.50;99.90
30097;DHT22;16915;51.466;3.610;2023-11-19T13:33:50;16.00;99.90
30097;DHT22;16915;51.466;3.610;2023-11-19T13:36:16;15.60;99.90
30097;DHT22;16915;51.466;3.610;2023-11-19T13:38:42;15.20;99.90
30097;DHT22;16915;51.466;3.610;2023-11-19T13:41:09;14.80;99.90
30097;DHT22;16915;51.466;3.610;2023-11-19T13:43:36;14.50;99.90
30097;DHT22;16915;51.466;3.610;2023-11-19T13:46:02;14.30;99.90
30097;DHT22;16915;51.466;3.610;2023-11-19T13:48:28;14.20;99.90
30097;DHT22;16915;51.466;3.610;2023-11-19T13:50:54;14.10;99.90
30097;DHT22;16915;51.466;3.610;2023-11-19T13:53:20;13.90;99.90
30097;DHT22;16915;51.466;3.610;2023-11-19T13:55:46;13.90;99.90
30097;DHT22;16915;51.466;3.610;2023-11-19T13:58:12;13.80;99.90
30097;DHT22;16915;51.466;3.610;2023-11-19T14:00:38;13.80;99.90
30097;DHT22;16915;51.466;3.610;2023-11-19T14:03:04;13.80;99.90
30097;DHT22;16915;51.466;3.610;2023-11-19T14:05:29;13.80;99.90
30097;DHT22;16915;51.466;3.610;2023-11-19T14:07:55;13.80;99.90
30097;DHT22;16915;51.466;3.610;2023-11-19T14:10:22;13.80;99.90
30097;DHT22;16915;51.466;3.610;2023-11-19T14:12:48;13.90;99.90
30097;DHT22;16915;51.466;3.610;2023-11-19T14:15:15;13.90;99.90
30097;DHT22;16915;51.466;3.610;2023-11-19T14:17:43;13.90;99.90
30097;DHT22;16915;51.466;3.610;2023-11-19T14:20:09;13.80;99.90
30097;DHT22;16915;51.466;3.610;2023-11-19T14:22:42;13.70;99.90
30097;DHT22;16915;51.466;3.610;2023-11-19T14:25:09;13.60;99.90
30097;DHT22;16915;51.466;3.610;2023-11-19T14:27:39;13.50;99.90
30097;DHT22;16915;51.466;3.610;2023-11-19T14:30:06;13.40;99.90
30097;DHT22;16915;51.466;3.610;2023-11-19T14:32:32;13.40;99.90
30097;DHT22;16915;51.466;3.610;2023-11-19T14:34:58;13.40;99.90
30097;DHT22;16915;51.466;3.610;2023-11-19T14:37:24;13.40;99.90
30097;DHT22;16915;51.466;3.610;2023-11-19T14:39:49;13.40;99.90
30097;DHT22;16915;51.466;3.610;2023-11-19T14:42:16;13.30;99.90
30097;DHT22;16915;51.466;3.610;2023-11-19T14:44:42;13.20;99.90
30097;DHT22;16915;51.466;3.610;2023-11-19T14:47:08;13.10;99.90
30097;DHT22;16915;51.466;3.610;2023-11-19T14:49:36;13.00;99.90
30097;DHT22;16915;51.466;3.610;2023-11-19T14:52:04;13.00;99.90
30097;DHT22;16915;51.466;3.610;2023-11-19T14:54:30;12.90;99.90
30097;DHT22;16915;51.466;3.610;2023-11-19T14:56:56;12.80;99.90
30097;DHT22;16915;51.466;3.610;2023-11-19T14:59:22;12.80;99.90
30097;DHT22;16915;51.466;3.610;2023-11-19T15:01:47;12.70;99.90
30097;DHT22;16915;51.466;3.610;2023-11-19T15:04:13;12.60;99.90
30097;DHT22;16915;51.466;3.610;2023-11-19T15:06:39;12.50;99.90
30097;DHT22;16915;51.466;3.610;2023-11-19T15:09:04;12.40;99.90
30097;DHT22;16915;51.466;3.610;2023-11-19T15:11:30;12.30;99.90
30097;DHT22;16915;51.466;3.610;2023-11-19T15:13:56;12.30;99.90
30097;DHT22;16915;51.466;3.610;2023-11-19T15:16:22;12.20;99.90
30097;DHT22;16915;51.466;3.610;2023-11-19T15:18:59;12.20;99.90
30097;DHT22;16915;51.466;3.610;2023-11-19T15:21:26;12.10;99.90
30097;DHT22;16915;51.466;3.610;2023-11-19T15:23:52;12.10;99.90
30097;DHT22;16915;51.466;3.610;2023-11-19T15:26:18;12.10;99.90
30097;DHT22;16915;51.466;3.610;2023-11-19T15:28:44;12.10;99.90
30097;DHT22;16915;51.466;3.610;2023-11-19T15:31:10;12.10;99.90
30097;DHT22;16915;51.466;3.610;2023-11-19T15:33:35;12.00;99.90
30097;DHT22;16915;51.466;3.610;2023-11-19T15:36:01;12.00;99.90
30097;DHT22;16915;51.466;3.610;2023-11-19T15:38:28;12.00;99.90
30097;DHT22;16915;51.466;3.610;2023-11-19T15:40:54;12.00;99.90
30097;DHT22;16915;51.466;3.610;2023-11-19T15:43:20;12.00;99.90
30097;DHT22;16915;51.466;3.610;2023-11-19T15:45:46;12.00;99.90
30097;DHT22;16915;51.466;3.610;2023-11-19T15:48:11;12.00;99.90
30097;DHT22;16915;51.466;3.610;2023-11-19T15:50:39;12.00;99.90
30097;DHT22;16915;51.466;3.610;2023-11-19T15:53:04;11.90;99.90
30097;DHT22;16915;51.466;3.610;2023-11-19T15:55:30;11.90;99.90